sensor_id;sensor_type;location;lat;lon;timestamp;temperature;humidity
49503;DHT22;35409;48.776;9.204;2023-05-27T01:27:04;13.00;99.90
49503;DHT22;35409;48.776;9.204;2023-05-27T01:29:30;12.80;99.90
49503;DHT22;35409;48.776;9.204;2023-05-27T01:32:16;12.70;99.90
49503;DHT22;35409;48.776;9.204;2023-05-27T01:34:53;12.60;99.90
49503;DHT22;35409;48.776;9.204;2023-05-27T01:37:23;12.50;99.90
49503;DHT22;35409;48.776;9.204;2023-05-27T01:39:50;12.40;99.90
49503;DHT22;35409;48.776;9.204;2023-05-27T01:42:16;12.40;99.90
49503;DHT22;35409;48.776;9.204;2023-05-27T01:44:42;12.40;99.90
49503;DHT22;35409;48.776;9.204;2023-05-27T01:47:09;12.30;99.90
49503;DHT22;35409;48.776;9.204;2023-05-27T01:49:35;12.30;99.90
49503;DHT22;35409;48.776;9.204;2023-05-27T01:52:01;12.30;99.90
49503;DHT22;35409;48.776;9.204;2023-05-27T01:54:26;12.20;99.90
49503;DHT22;35409;48.776;9.204;2023-05-27T01:56:52;12.20;99.90
49503;DHT22;35409;48.776;9.204;2023-05-27T01:59:17;12.10;99.90
49503;DHT22;35409;48.776;9.204;2023-05-27T02:01:43;12.10;99.90
49503;DHT22;35409;48.776;9.204;2023-05-27T02:04:09;12.10;99.90
49503;DHT22;35409;48.776;9.204;2023-05-27T02:06:34;12.10;99.90
49503;DHT22;35409;48.776;9.204;2023-05-27T02:09:01;12.10;99.90
49503;DHT22;35409;48.776;9.204;2023-05-27T02:11:27;12.10;99.90
49503;DHT22;35409;48.776;9.204;2023-05-27T02:13:52;12.00;99.90
49503;DHT22;35409;48.776;9.204;2023-05-27T02:16:18;11.90;99.90
49503;DHT22;35409;48.776;9.204;2023-05-27T02:18:47;11.90;99.90
49503;DHT22;35409;48.776;9.204;2023-05-27T02:21:14;11.90;99.90
49503;DHT22;35409;48.776;9.204;2023-05-27T02:23:40;11.90;99.90
49503;DHT22;35409;48.776;9.204;2023-05-27T02:26:06;11.90;99.90
49503;DHT22;35409;48.776;9.204;2023-05-27T02:28:31;11.90;99.90
49503;DHT22;35409;48.776;9.204;2023-05-27T02:30:57;11.80;99.90
49503;DHT22;35409;48.776;9.204;2023-05-27T02:33:23;11.80;99.90
49503;DHT22;35409;48.776;9.204;2023-05-27T02:35:49;11.70;99.90
49503;DHT22;35409;48.776;9.204;2023-05-27T02:38:14;11.70;99.90
49503;DHT22;35409;48.776;9.204;2023-05-27T02:40:40;11.70;99.90
49503;DHT22;35409;48.776;9.204;2023-05-27T02:43:06;11.70;99.90
49503;DHT22;35409;48.776;9.204;2023-05-27T02:45:31;11.70;99.90
49503;DHT22;35409;48.776;9.204;2023-05-27T02:47:57;11.70;99.90
49503;DHT22;35409;48.776;9.204;2023-05-27T02:50:26;11.60;99.90
49503;DHT22;35409;48.776;9.204;2023-05-27T02:52:52;11.60;99.90
49503;DHT22;35409;48.776;9.204;2023-05-27T02:55:18;11.60;99.90
49503;DHT22;35409;48.776;9.204;2023-05-27T02:57:43;11.60;99.90
49503;DHT22;35409;48.776;9.204;2023-05-27T03:00:09;11.60;99.90
49503;DHT22;35409;48.776;9.204;2023-05-27T03:02:37;11.50;99.90
49503;DHT22;35409;48.776;9.204;2023-05-27T03:05:03;11.50;99.90
49503;DHT22;35409;48.776;9.204;2023-05-27T03:07:29;11.50;99.90
49503;DHT22;35409;48.776;9.204;2023-05-27T03:09:55;11.50;99.90
49503;DHT22;35409;48.776;9.204;2023-05-27T03:12:21;11.50;99.90
49503;DHT22;35409;48.776;9.204;2023-05-27T03:14:47;11.40;99.90
49503;DHT22;35409;48.776;9.204;2023-05-27T03:17:13;11.40;99.90
49503;DHT22;35409;48.776;9.204;2023-05-27T03:19:38;11.30;99.90
49503;DHT22;35409;48.776;9.204;2023-05-27T03:22:04;11.30;99.90
49503;DHT22;35409;48.776;9.204;2023-05-27T03:24:30;11.30;99.90
49503;DHT22;35409;48.776;9.204;2023-05-27T03:26:55;11.30;99.90
49503;DHT22;35409;48.776;9.204;2023-05-27T03:29:21;11.20;99.90
49503;DHT22;35409;48.776;9.204;2023-05-27T03:31:46;11.20;99.90
49503;DHT22;35409;48.776;9.204;2023-05-27T03:34:13;11.20;99.90
49503;DHT22;35409;48.776;9.204;2023-05-27T03:36:38;11.20;99.90
49503;DHT22;35409;48.776;9.204;2023-05-27T03:39:04;11.20;99.90
49503;DHT22;35409;48.776;9.204;2023-05-27T03:41:33;11.20;99.90
49503;DHT22;35409;48.776;9.204;2023-05-27T03:43:58;11.20;99.90
49503;DHT22;35409;48.776;9.204;2023-05-27T03:46:24;11.20;99.90
49503;DHT22;35409;48.776;9.204;2023-05-27T03:48:49;11.10;99.90
49503;DHT22;35409;48.776;9.204;2023-05-27T03:51:15;11.10;99.90
49503;DHT22;35409;48.776;9.204;2023-05-27T03:53:40;11.20;99.90
49503;DHT22;35409;48.776;9.204;2023-05-27T03:56:06;11.20;99.90
49503;DHT22;35409;48.776;9.204;2023-05-27T03:58:32;11.20;99.90
49503;DHT22;35409;48.776;9.204;2023-05-27T04:00:57;11.20;99.90
49503;DHT22;35409;48.776;9.204;2023-05-27T04:03:23;11.20;99.90
49503;DHT22;35409;48.776;9.204;2023-05-27T04:05:48;11.20;99.90
49503;DHT22;35409;48.776;9.204;2023-05-27T04:08:14;11.20;99.90
49503;DHT22;35409;48.776;9.204;2023-05-27T04:10:40;11.20;99.90
49503;DHT22;35409;48.776;9.204;2023-05-27T04:13:05;11.30;99.90
49503;DHT22;35409;48.776;9.204;2023-05-27T04:15:31;11.30;99.90
49503;DHT22;35409;48.776;9.204;2023-05-27T04:17:57;11.30;99.90
49503;DHT22;35409;48.776;9.204;2023-05-27T04:20:23;11.30;99.90
49503;DHT22;35409;48.776;9.204;2023-05-27T04:22:49;11.40;99.90
49503;DHT22;35409;48.776;9.204;2023-05-27T04:25:15;11.40;99.90
49503;DHT22;35409;48.776;9.204;2023-05-27T04:27:41;11.50;99.90
49503;DHT22;35409;48.776;9.204;2023-05-27T04:30:07;11.50;99.90
49503;DHT22;35409;48.776;9.204;2023-05-27T04:32:32;11.50;99.90
49503;DHT22;35409;48.776;9.204;2023-05-27T04:35:06;11.60;99.90
49503;DHT22;35409;48.776;9.204;2023-05-27T04:37:37;11.70;99.90
49503;DHT22;35409;48.776;9.204;2023-05-27T04:40:06;11.80;99.90
49503;DHT22;35409;48.776;9.204;2023-05-27T04:42:33;11.80;99.90
49503;DHT22;35409;48.776;9.204;2023-05-27T04:45:05;11.90;99.90
49503;DHT22;35409;48.776;9.204;2023-05-27T04:47:34;12.00;99.90
49503;DHT22;35409;48.776;9.204;2023-05-27T04:50:05;12.00;99.90
49503;DHT22;35409;48.776;9.204;2023-05-27T04:52:31;12.10;99.90
49503;DHT22;35409;48.776;9.204;2023-05-27T04:55:06;12.20;99.90
49503;DHT22;35409;48.776;9.204;2023-05-27T04:57:32;12.40;99.90
49503;DHT22;35409;48.776;9.204;2023-05-27T04:59:59;12.50;99.90
49503;DHT22;35409;48.776;9.204;2023-05-27T05:02:44;12.70;99.90
49503;DHT22;35409;48.776;9.204;2023-05-27T05:05:12;12.80;99.90
49503;DHT22;35409;48.776;9.204;2023-05-27T05:07:38;12.90;99.90
49503;DHT22;35409;48.776;9.204;2023-05-27T05:10:06;13.00;99.90
49503;DHT22;35409;48.776;9.204;2023-05-27T05:12:33;13.10;99.90
49503;DHT22;35409;48.776;9.204;2023-05-27T05:14:58;13.20;99.90
49503;DHT22;35409;48.776;9.204;2023-05-27T05:17:24;13.30;99.90
49503;DHT22;35409;48.776;9.204;2023-05-27T05:19:51;13.30;99.90
49503;DHT22;35409;48.776;9.204;2023-05-27T05:22:17;13.40;99.90
49503;DHT22;35409;48.776;9.204;2023-05-27T05:24:48;13.50;99.90
49503;DHT22;35409;48.776;9.204;2023-05-27T05:27:14;13.60;99.90
49503;DHT22;35409;48.776;9.204;2023-05-27T05:29:39;13.60;99.90
49503;DHT22;35409;48.776;9.204;2023-05-27T05:32:06;13.80;99.90
49503;DHT22;35409;48.776;9.204;2023-05-27T05:34:31;13.80;99.90
49503;DHT22;35409;48.776;9.204;2023-05-27T05:36:57;13.80;99.90
49503;DHT22;35409;48.776;9.204;2023-05-27T05:39:23;13.80;99.90
49503;DHT22;35409;48.776;9.204;2023-05-27T05:41:49;13.90;99.90
49503;DHT22;35409;48.776;9.204;2023-05-27T05:44:16;13.90;99.90
49503;DHT22;35409;48.776;9.204;2023-05-27T05:46:42;14.00;99.90
49503;DHT22;35409;48.776;9.204;2023-05-27T05:49:07;14.10;99.90
49503;DHT22;35409;48.776;9.204;2023-05-27T05:51:33;14.20;99.90
49503;DHT22;35409;48.776;9.204;2023-05-27T05:53:59;14.30;99.90
49503;DHT22;35409;48.776;9.204;2023-05-27T05:56:25;14.30;99.90
49503;DHT22;35409;48.776;9.204;2023-05-27T05:58:53;14.40;99.90
49503;DHT22;35409;48.776;9.204;2023-05-27T06:01:19;14.50;99.90
49503;DHT22;35409;48.776;9.204;2023-05-27T06:03:45;14.50;99.90
49503;DHT22;35409;48.776;9.204;2023-05-27T06:06:10;14.60;99.90
49503;DHT22;35409;48.776;9.204;2023-05-27T06:08:36;14.60;99.90
49503;DHT22;35409;48.776;9.204;2023-05-27T06:11:02;14.70;99.90
49503;DHT22;35409;48.776;9.204;2023-05-27T06:13:27;14.80;99.90
49503;DHT22;35409;48.776;9.204;2023-05-27T06:15:53;14.90;99.90
49503;DHT22;35409;48.776;9.204;2023-05-27T06:18:21;15.00;99.90
49503;DHT22;35409;48.776;9.204;2023-05-27T06:20:46;15.10;99.90
49503;DHT22;35409;48.776;9.204;2023-05-27T06:23:12;15.20;99.90
49503;DHT22;35409;48.776;9.204;2023-05-27T06:25:38;15.40;99.90
49503;DHT22;35409;48.776;9.204;2023-05-27T06:28:03;15.50;99.90
49503;DHT22;35409;48.776;9.204;2023-05-27T06:30:29;15.50;99.90
49503;DHT22;35409;48.776;9.204;2023-05-27T06:32:55;15.50;99.90
49503;DHT22;35409;48.776;9.204;2023-05-27T06:35:21;15.70;99.90
49503;DHT22;35409;48.776;9.204;2023-05-27T06:37:46;15.70;99.90
49503;DHT22;35409;48.776;9.204;2023-05-27T06:40:12;15.80;99.90
49503;DHT22;35409;48.776;9.204;2023-05-27T06:42:38;15.80;99.90
49503;DHT22;35409;48.776;9.204;2023-05-27T06:45:03;15.80;99.90
49503;DHT22;35409;48.776;9.204;2023-05-27T06:47:30;15.90;99.90
49503;DHT22;35409;48.776;9.204;2023-05-27T06:49:55;16.00;99.90
49503;DHT22;35409;48.776;9.204;2023-05-27T06:52:21;16.20;99.90
49503;DHT22;35409;48.776;9.204;2023-05-27T06:54:47;16.30;99.90
49503;DHT22;35409;48.776;9.204;2023-05-27T06:57:13;16.30;99.90
49503;DHT22;35409;48.776;9.204;2023-05-27T06:59:40;16.20;99.90
49503;DHT22;35409;48.776;9.204;2023-05-27T07:02:06;16.40;99.90
49503;DHT22;35409;48.776;9.204;2023-05-27T07:04:32;16.50;99.90
49503;DHT22;35409;48.776;9.204;2023-05-27T07:06:57;16.50;99.90
49503;DHT22;35409;48.776;9.204;2023-05-27T07:09:23;16.50;99.90
49503;DHT22;35409;48.776;9.204;2023-05-27T07:11:49;16.60;99.90
49503;DHT22;35409;48.776;9.204;2023-05-27T07:14:14;16.60;99.90
49503;DHT22;35409;48.776;9.204;2023-05-27T07:16:40;16.70;99.90
49503;DHT22;35409;48.776;9.204;2023-05-27T07:19:06;16.80;99.90
49503;DHT22;35409;48.776;9.204;2023-05-27T07:21:32;16.90;99.90
49503;DHT22;35409;48.776;9.204;2023-05-27T07:23:59;16.90;99.70
49503;DHT22;35409;48.776;9.204;2023-05-27T07:26:28;17.00;99.60
49503;DHT22;35409;48.776;9.204;2023-05-27T07:28:57;17.10;99.70
49503;DHT22;35409;48.776;9.204;2023-05-27T07:31:23;17.20;99.40
49503;DHT22;35409;48.776;9.204;2023-05-27T07:33:49;17.30;99.40
49503;DHT22;35409;48.776;9.204;2023-05-27T07:36:15;17.40;99.30
49503;DHT22;35409;48.776;9.204;2023-05-27T07:38:40;17.60;99.70
49503;DHT22;35409;48.776;9.204;2023-05-27T07:41:06;17.80;98.90
49503;DHT22;35409;48.776;9.204;2023-05-27T07:43:32;17.90;98.40
49503;DHT22;35409;48.776;9.204;2023-05-27T07:45:57;18.00;98.30
49503;DHT22;35409;48.776;9.204;2023-05-27T07:48:23;18.00;98.10
49503;DHT22;35409;48.776;9.204;2023-05-27T07:50:48;18.10;97.90
49503;DHT22;35409;48.776;9.204;2023-05-27T07:53:14;18.10;97.80
49503;DHT22;35409;48.776;9.204;2023-05-27T07:55:39;18.20;97.70
49503;DHT22;35409;48.776;9.204;2023-05-27T07:58:05;18.40;97.50
49503;DHT22;35409;48.776;9.204;2023-05-27T08:00:31;18.50;97.90
49503;DHT22;35409;48.776;9.204;2023-05-27T08:02:56;18.60;97.40
49503;DHT22;35409;48.776;9.204;2023-05-27T08:05:22;18.60;97.00
49503;DHT22;35409;48.776;9.204;2023-05-27T08:07:48;18.80;96.80
49503;DHT22;35409;48.776;9.204;2023-05-27T08:10:13;18.90;96.60
49503;DHT22;35409;48.776;9.204;2023-05-27T08:12:39;18.90;96.00
49503;DHT22;35409;48.776;9.204;2023-05-27T08:15:05;19.10;96.10
49503;DHT22;35409;48.776;9.204;2023-05-27T08:17:31;19.20;95.70
49503;DHT22;35409;48.776;9.204;2023-05-27T08:19:57;19.30;95.20
49503;DHT22;35409;48.776;9.204;2023-05-27T08:22:22;19.30;95.10
49503;DHT22;35409;48.776;9.204;2023-05-27T08:24:48;19.30;95.20
49503;DHT22;35409;48.776;9.204;2023-05-27T08:27:15;19.30;95.10
49503;DHT22;35409;48.776;9.204;2023-05-27T08:29:42;19.40;95.50
49503;DHT22;35409;48.776;9.204;2023-05-27T08:32:07;19.50;94.50
49503;DHT22;35409;48.776;9.204;2023-05-27T08:34:33;19.50;94.70
49503;DHT22;35409;48.776;9.204;2023-05-27T08:36:58;19.50;94.40
49503;DHT22;35409;48.776;9.204;2023-05-27T08:39:25;19.50;94.70
49503;DHT22;35409;48.776;9.204;2023-05-27T08:41:53;19.60;94.30
49503;DHT22;35409;48.776;9.204;2023-05-27T08:44:21;19.60;94.40
49503;DHT22;35409;48.776;9.204;2023-05-27T08:46:49;19.80;94.10
49503;DHT22;35409;48.776;9.204;2023-05-27T08:49:15;19.80;94.60
49503;DHT22;35409;48.776;9.204;2023-05-27T08:51:41;19.90;94.10
49503;DHT22;35409;48.776;9.204;2023-05-27T08:54:08;20.10;99.80
49503;DHT22;35409;48.776;9.204;2023-05-27T08:56:35;20.20;98.80
49503;DHT22;35409;48.776;9.204;2023-05-27T08:59:01;20.30;95.70
49503;DHT22;35409;48.776;9.204;2023-05-27T09:01:27;20.40;93.10
49503;DHT22;35409;48.776;9.204;2023-05-27T09:03:55;20.50;92.60
49503;DHT22;35409;48.776;9.204;2023-05-27T09:06:21;20.50;92.70
49503;DHT22;35409;48.776;9.204;2023-05-27T09:08:46;20.50;92.60
49503;DHT22;35409;48.776;9.204;2023-05-27T09:11:25;20.60;93.70
49503;DHT22;35409;48.776;9.204;2023-05-27T09:13:56;20.70;92.50
49503;DHT22;35409;48.776;9.204;2023-05-27T09:16:22;20.80;92.50
49503;DHT22;35409;48.776;9.204;2023-05-27T09:18:48;20.80;92.10
49503;DHT22;35409;48.776;9.204;2023-05-27T09:21:13;20.80;92.20
49503;DHT22;35409;48.776;9.204;2023-05-27T09:23:39;20.70;92.20
49503;DHT22;35409;48.776;9.204;2023-05-27T09:26:09;21.00;92.30
49503;DHT22;35409;48.776;9.204;2023-05-27T09:28:35;21.20;91.60
49503;DHT22;35409;48.776;9.204;2023-05-27T09:31:04;21.30;91.40
49503;DHT22;35409;48.776;9.204;2023-05-27T09:33:48;21.50;91.00
49503;DHT22;35409;48.776;9.204;2023-05-27T09:36:20;21.60;90.80
49503;DHT22;35409;48.776;9.204;2023-05-27T09:38:47;21.70;91.00
49503;DHT22;35409;48.776;9.204;2023-05-27T09:41:13;21.80;91.00
49503;DHT22;35409;48.776;9.204;2023-05-27T09:43:39;22.00;90.50
49503;DHT22;35409;48.776;9.204;2023-05-27T09:46:10;22.10;90.40
49503;DHT22;35409;48.776;9.204;2023-05-27T09:48:37;22.10;90.10
49503;DHT22;35409;48.776;9.204;2023-05-27T09:51:03;22.30;89.30
49503;DHT22;35409;48.776;9.204;2023-05-27T09:53:29;22.40;88.60
49503;DHT22;35409;48.776;9.204;2023-05-27T09:55:56;22.50;88.10
49503;DHT22;35409;48.776;9.204;2023-05-27T09:58:23;22.50;88.40
49503;DHT22;35409;48.776;9.204;2023-05-27T10:00:50;22.50;88.80
49503;DHT22;35409;48.776;9.204;2023-05-27T10:03:22;22.70;88.10
49503;DHT22;35409;48.776;9.204;2023-05-27T10:05:50;22.70;87.00
49503;DHT22;35409;48.776;9.204;2023-05-27T10:08:16;22.80;86.30
49503;DHT22;35409;48.776;9.204;2023-05-27T10:10:43;23.00;86.20
49503;DHT22;35409;48.776;9.204;2023-05-27T10:13:09;23.10;86.20
49503;DHT22;35409;48.776;9.204;2023-05-27T10:15:35;23.00;85.20
49503;DHT22;35409;48.776;9.204;2023-05-27T10:18:05;23.10;84.80
49503;DHT22;35409;48.776;9.204;2023-05-27T10:20:41;23.20;85.20
49503;DHT22;35409;48.776;9.204;2023-05-27T10:23:27;23.30;85.20
49503;DHT22;35409;48.776;9.204;2023-05-27T10:26:01;23.50;85.00
49503;DHT22;35409;48.776;9.204;2023-05-27T10:28:35;23.70;83.00
49503;DHT22;35409;48.776;9.204;2023-05-27T10:31:05;23.90;83.00
49503;DHT22;35409;48.776;9.204;2023-05-27T10:33:34;24.00;81.10
49503;DHT22;35409;48.776;9.204;2023-05-27T10:36:04;24.00;81.50
49503;DHT22;35409;48.776;9.204;2023-05-27T10:38:31;23.90;80.00
49503;DHT22;35409;48.776;9.204;2023-05-27T10:41:01;23.80;80.40
49503;DHT22;35409;48.776;9.204;2023-05-27T10:43:28;24.00;81.50
49503;DHT22;35409;48.776;9.204;2023-05-27T10:46:21;24.10;79.30
49503;DHT22;35409;48.776;9.204;2023-05-27T10:48:47;24.20;79.10
49503;DHT22;35409;48.776;9.204;2023-05-27T10:51:12;24.30;79.00
49503;DHT22;35409;48.776;9.204;2023-05-27T10:53:38;24.40;79.20
49503;DHT22;35409;48.776;9.204;2023-05-27T10:56:04;24.40;78.80
49503;DHT22;35409;48.776;9.204;2023-05-27T10:58:33;24.60;79.70
49503;DHT22;35409;48.776;9.204;2023-05-27T11:01:03;24.70;77.60
49503;DHT22;35409;48.776;9.204;2023-05-27T11:03:32;24.80;77.10
49503;DHT22;35409;48.776;9.204;2023-05-27T11:08:26;25.20;76.60
49503;DHT22;35409;48.776;9.204;2023-05-27T11:13:35;25.40;75.30
49503;DHT22;35409;48.776;9.204;2023-05-27T11:16:02;25.50;73.80
49503;DHT22;35409;48.776;9.204;2023-05-27T11:21:03;25.40;74.80
49503;DHT22;35409;48.776;9.204;2023-05-27T11:26:12;25.20;73.10
49503;DHT22;35409;48.776;9.204;2023-05-27T11:28:56;25.10;73.80
49503;DHT22;35409;48.776;9.204;2023-05-27T11:31:30;25.00;72.80
49503;DHT22;35409;48.776;9.204;2023-05-27T11:33:56;25.20;73.10
49503;DHT22;35409;48.776;9.204;2023-05-27T11:36:26;25.20;72.60
49503;DHT22;35409;48.776;9.204;2023-05-27T11:38:59;25.20;72.40
49503;DHT22;35409;48.776;9.204;2023-05-27T11:41:27;25.40;72.80
49503;DHT22;35409;48.776;9.204;2023-05-27T11:44:06;25.60;71.50
49503;DHT22;35409;48.776;9.204;2023-05-27T11:46:38;25.80;71.50
49503;DHT22;35409;48.776;9.204;2023-05-27T11:49:04;25.90;70.90
49503;DHT22;35409;48.776;9.204;2023-05-27T11:51:30;26.00;70.00
49503;DHT22;35409;48.776;9.204;2023-05-27T11:53:58;26.00;70.80
49503;DHT22;35409;48.776;9.204;2023-05-27T11:56:26;26.20;71.60
49503;DHT22;35409;48.776;9.204;2023-05-27T11:58:54;26.40;69.70
49503;DHT22;35409;48.776;9.204;2023-05-27T12:01:20;26.10;69.00
49503;DHT22;35409;48.776;9.204;2023-05-27T12:03:46;25.70;69.10
49503;DHT22;35409;48.776;9.204;2023-05-27T12:06:11;25.20;68.70
49503;DHT22;35409;48.776;9.204;2023-05-27T12:08:37;25.20;69.70
49503;DHT22;35409;48.776;9.204;2023-05-27T12:11:04;25.30;69.30
49503;DHT22;35409;48.776;9.204;2023-05-27T12:13:30;25.40;69.30
49503;DHT22;35409;48.776;9.204;2023-05-27T12:15:57;25.50;68.40
49503;DHT22;35409;48.776;9.204;2023-05-27T12:18:23;25.60;70.00
49503;DHT22;35409;48.776;9.204;2023-05-27T12:20:49;25.70;69.40
49503;DHT22;35409;48.776;9.204;2023-05-27T12:23:14;26.00;69.40
49503;DHT22;35409;48.776;9.204;2023-05-27T12:25:40;26.30;69.30
49503;DHT22;35409;48.776;9.204;2023-05-27T12:28:07;26.40;68.80
49503;DHT22;35409;48.776;9.204;2023-05-27T12:30:33;26.30;67.90
49503;DHT22;35409;48.776;9.204;2023-05-27T12:33:00;26.30;67.70
49503;DHT22;35409;48.776;9.204;2023-05-27T12:35:26;26.40;67.10
49503;DHT22;35409;48.776;9.204;2023-05-27T12:37:51;26.50;67.80
49503;DHT22;35409;48.776;9.204;2023-05-27T12:40:18;26.50;66.80
49503;DHT22;35409;48.776;9.204;2023-05-27T12:42:43;26.60;68.10
49503;DHT22;35409;48.776;9.204;2023-05-27T12:45:09;26.50;67.20
49503;DHT22;35409;48.776;9.204;2023-05-27T12:47:36;26.50;67.00
49503;DHT22;35409;48.776;9.204;2023-05-27T12:50:01;26.60;67.10
49503;DHT22;35409;48.776;9.204;2023-05-27T12:52:27;26.70;67.00
49503;DHT22;35409;48.776;9.204;2023-05-27T12:54:53;27.00;86.10
49503;DHT22;35409;48.776;9.204;2023-05-27T12:59:45;28.20;77.80
49503;DHT22;35409;48.776;9.204;2023-05-27T13:02:11;27.70;65.70
49503;DHT22;35409;48.776;9.204;2023-05-27T13:04:39;27.80;66.20
49503;DHT22;35409;48.776;9.204;2023-05-27T13:07:05;27.70;65.10
49503;DHT22;35409;48.776;9.204;2023-05-27T13:09:34;27.70;64.70
49503;DHT22;35409;48.776;9.204;2023-05-27T13:12:00;27.80;65.70
49503;DHT22;35409;48.776;9.204;2023-05-27T13:14:27;27.90;64.90
49503;DHT22;35409;48.776;9.204;2023-05-27T13:16:53;27.70;63.70
49503;DHT22;35409;48.776;9.204;2023-05-27T13:19:20;27.30;64.50
49503;DHT22;35409;48.776;9.204;2023-05-27T13:21:45;27.30;65.20
49503;DHT22;35409;48.776;9.204;2023-05-27T13:24:11;27.30;63.60
49503;DHT22;35409;48.776;9.204;2023-05-27T13:26:37;27.30;63.80
49503;DHT22;35409;48.776;9.204;2023-05-27T13:29:03;27.40;63.30
49503;DHT22;35409;48.776;9.204;2023-05-27T13:31:29;27.50;63.90
49503;DHT22;35409;48.776;9.204;2023-05-27T13:33:54;27.70;63.70
49503;DHT22;35409;48.776;9.204;2023-05-27T13:36:20;27.60;64.10
49503;DHT22;35409;48.776;9.204;2023-05-27T13:38:45;27.40;63.70
49503;DHT22;35409;48.776;9.204;2023-05-27T13:41:11;27.40;65.20
49503;DHT22;35409;48.776;9.204;2023-05-27T13:43:37;27.30;64.20
49503;DHT22;35409;48.776;9.204;2023-05-27T13:46:02;27.00;65.20
49503;DHT22;35409;48.776;9.204;2023-05-27T13:48:28;26.90;65.60
49503;DHT22;35409;48.776;9.204;2023-05-27T13:50:55;27.10;63.40
49503;DHT22;35409;48.776;9.204;2023-05-27T13:53:21;26.90;62.60
49503;DHT22;35409;48.776;9.204;2023-05-27T13:55:46;26.90;62.00
49503;DHT22;35409;48.776;9.204;2023-05-27T13:58:12;27.00;62.30
49503;DHT22;35409;48.776;9.204;2023-05-27T14:00:38;27.20;62.70
49503;DHT22;35409;48.776;9.204;2023-05-27T14:03:03;27.40;61.50
49503;DHT22;35409;48.776;9.204;2023-05-27T14:05:29;27.50;61.30
49503;DHT22;35409;48.776;9.204;2023-05-27T14:07:55;27.60;62.70
49503;DHT22;35409;48.776;9.204;2023-05-27T14:10:21;27.80;63.20
49503;DHT22;35409;48.776;9.204;2023-05-27T14:12:47;27.90;60.30
49503;DHT22;35409;48.776;9.204;2023-05-27T14:15:13;28.00;60.60
49503;DHT22;35409;48.776;9.204;2023-05-27T14:17:38;28.00;60.30
49503;DHT22;35409;48.776;9.204;2023-05-27T14:20:04;28.00;60.90
49503;DHT22;35409;48.776;9.204;2023-05-27T14:22:36;28.20;59.20
49503;DHT22;35409;48.776;9.204;2023-05-27T14:25:02;28.20;59.10
49503;DHT22;35409;48.776;9.204;2023-05-27T14:27:27;28.20;58.90
49503;DHT22;35409;48.776;9.204;2023-05-27T14:29:53;28.10;58.60
49503;DHT22;35409;48.776;9.204;2023-05-27T14:32:18;28.00;58.90
49503;DHT22;35409;48.776;9.204;2023-05-27T14:34:44;28.10;58.50
49503;DHT22;35409;48.776;9.204;2023-05-27T14:37:09;28.40;57.10
49503;DHT22;35409;48.776;9.204;2023-05-27T14:39:35;28.70;57.10
49503;DHT22;35409;48.776;9.204;2023-05-27T14:42:01;28.90;55.80
49503;DHT22;35409;48.776;9.204;2023-05-27T14:44:26;29.10;55.20
49503;DHT22;35409;48.776;9.204;2023-05-27T14:46:52;29.20;52.90
49503;DHT22;35409;48.776;9.204;2023-05-27T14:49:18;28.80;54.20
49503;DHT22;35409;48.776;9.204;2023-05-27T14:51:43;29.00;53.60
49503;DHT22;35409;48.776;9.204;2023-05-27T14:54:09;29.10;52.80
49503;DHT22;35409;48.776;9.204;2023-05-27T14:56:36;29.10;51.70
49503;DHT22;35409;48.776;9.204;2023-05-27T14:59:02;29.20;51.70
49503;DHT22;35409;48.776;9.204;2023-05-27T15:01:27;29.10;50.50
49503;DHT22;35409;48.776;9.204;2023-05-27T15:03:53;29.10;50.30
49503;DHT22;35409;48.776;9.204;2023-05-27T15:06:19;29.00;50.50
49503;DHT22;35409;48.776;9.204;2023-05-27T15:08:45;29.10;51.70
49503;DHT22;35409;48.776;9.204;2023-05-27T15:11:10;29.10;50.10
49503;DHT22;35409;48.776;9.204;2023-05-27T15:13:36;29.00;50.60
49503;DHT22;35409;48.776;9.204;2023-05-27T15:16:02;29.00;50.60
49503;DHT22;35409;48.776;9.204;2023-05-27T15:18:28;29.00;51.10
49503;DHT22;35409;48.776;9.204;2023-05-27T15:20:54;29.00;51.20
49503;DHT22;35409;48.776;9.204;2023-05-27T15:23:20;29.00;51.20
49503;DHT22;35409;48.776;9.204;2023-05-27T15:25:46;29.10;52.40
49503;DHT22;35409;48.776;9.204;2023-05-27T15:28:12;29.20;50.90
49503;DHT22;35409;48.776;9.204;2023-05-27T15:30:38;29.10;51.20
49503;DHT22;35409;48.776;9.204;2023-05-27T15:33:04;29.20;49.80
49503;DHT22;35409;48.776;9.204;2023-05-27T15:35:29;29.20;49.60
49503;DHT22;35409;48.776;9.204;2023-05-27T15:37:55;29.10;50.70
49503;DHT22;35409;48.776;9.204;2023-05-27T15:40:21;29.10;50.60
49503;DHT22;35409;48.776;9.204;2023-05-27T15:42:47;29.20;50.50
49503;DHT22;35409;48.776;9.204;2023-05-27T15:45:12;29.30;50.80
49503;DHT22;35409;48.776;9.204;2023-05-27T15:47:38;29.30;51.70
49503;DHT22;35409;48.776;9.204;2023-05-27T15:50:05;29.40;51.50
49503;DHT22;35409;48.776;9.204;2023-05-27T15:52:31;29.50;50.00
49503;DHT22;35409;48.776;9.204;2023-05-27T15:54:56;29.60;48.90
49503;DHT22;35409;48.776;9.204;2023-05-27T15:57:22;29.50;49.30
49503;DHT22;35409;48.776;9.204;2023-05-27T15:59:48;29.30;49.60
49503;DHT22;35409;48.776;9.204;2023-05-27T16:02:15;29.30;49.50
49503;DHT22;35409;48.776;9.204;2023-05-27T16:04:41;29.30;50.00
49503;DHT22;35409;48.776;9.204;2023-05-27T16:07:07;29.20;50.00
49503;DHT22;35409;48.776;9.204;2023-05-27T16:09:33;29.10;49.90
49503;DHT22;35409;48.776;9.204;2023-05-27T16:11:58;29.00;50.50
49503;DHT22;35409;48.776;9.204;2023-05-27T16:14:24;29.00;50.40
49503;DHT22;35409;48.776;9.204;2023-05-27T16:16:50;29.10;51.70
49503;DHT22;35409;48.776;9.204;2023-05-27T16:19:15;29.20;51.90
49503;DHT22;35409;48.776;9.204;2023-05-27T16:21:41;29.20;51.40
49503;DHT22;35409;48.776;9.204;2023-05-27T16:24:12;29.20;51.80
49503;DHT22;35409;48.776;9.204;2023-05-27T16:26:37;29.10;51.90
49503;DHT22;35409;48.776;9.204;2023-05-27T16:29:04;29.20;51.40
49503;DHT22;35409;48.776;9.204;2023-05-27T16:31:29;29.00;51.70
49503;DHT22;35409;48.776;9.204;2023-05-27T16:33:55;28.90;51.80
49503;DHT22;35409;48.776;9.204;2023-05-27T16:36:21;28.70;50.20
49503;DHT22;35409;48.776;9.204;2023-05-27T16:38:46;28.30;50.80
49503;DHT22;35409;48.776;9.204;2023-05-27T16:41:12;28.10;51.00
49503;DHT22;35409;48.776;9.204;2023-05-27T16:43:37;27.80;52.10
49503;DHT22;35409;48.776;9.204;2023-05-27T16:46:03;27.50;52.80
49503;DHT22;35409;48.776;9.204;2023-05-27T16:48:29;27.20;53.20
49503;DHT22;35409;48.776;9.204;2023-05-27T16:50:54;27.00;54.00
49503;DHT22;35409;48.776;9.204;2023-05-27T16:53:20;26.80;54.40
49503;DHT22;35409;48.776;9.204;2023-05-27T16:55:45;26.70;53.70
49503;DHT22;35409;48.776;9.204;2023-05-27T16:58:12;26.50;54.10
49503;DHT22;35409;48.776;9.204;2023-05-27T17:00:38;26.30;54.60
49503;DHT22;35409;48.776;9.204;2023-05-27T17:03:04;26.10;54.60
49503;DHT22;35409;48.776;9.204;2023-05-27T17:05:29;26.00;55.40